PWSweather.com
Personal Weather Stations
Station Observations
KCOGRAND2
Redlands, Southcamp Road & Dakota Circle, Grand Junction, CO 81507

Redlands, Southcamp Road & Dakota CircleGrand Junction, CO 81507

Lat: 39.055, Lon: -108.637

Elevation: 4870

Station Type: RadioShack WX200

Latest ConditionsUpdated 4:35:00 PM MDT Friday, Jul 21, 2017
Currently Today's Max Today's Min Today's Average
Temperature 87.8°F31.0°C 93.2°F34.0°C 73.2°F22.9°C 83.9°F28.8°C
Dew Point -5537.2°C 44.2°F6.8°C 24.4°F-4.2°C 36.5°F2.5°C
Winds 6.0 mph SSE9.7 kmh SSE 9.0 mph S14.5 kmh S - 4.6 mph 7.4 kmh
Wind Gusts 13.0 mph20.9 kmh 15.4 mph24.8 kmh - -
Humidity - 35% 11% 22%
Pressure 25.07 in849.0 mb 25.16 in852.0 mb 25.07 in849.0 mb -
Hour Temp Dew Point Humidity Winds Wind Gusts Pressure Precip Precip Rate Daily Precip Total
04:35 PM 87.8°F31.0°C -5537.2°C - 6.0 mph SSE9.7 kmh SSE 13.0 mph20.9 kmh 25.07 in849.0 mb 0.00 in0.0 mm 0.00 in0.0 mm 0.00 in0.0 mm
04:30 PM 88.0°F31.1°C -5537.2°C - 5.0 mph SE8.0 kmh SE 6.9 mph11.1 kmh 25.07 in849.0 mb 0.00 in0.0 mm 0.00 in0.0 mm 0.00 in0.0 mm
04:25 PM 88.3°F31.3°C -5537.2°C - 5.0 mph SE8.0 kmh SE 7.8 mph12.6 kmh 25.07 in849.0 mb 0.00 in0.0 mm 0.00 in0.0 mm 0.00 in0.0 mm
04:20 PM 88.3°F31.3°C -5537.2°C - 6.0 mph SE9.7 kmh SE 8.3 mph13.4 kmh 25.07 in849.0 mb 0.00 in0.0 mm 0.00 in0.0 mm 0.00 in0.0 mm
04:15 PM 88.7°F31.5°C -5537.2°C - 5.0 mph SE8.0 kmh SE 7.8 mph12.6 kmh 25.07 in849.0 mb 0.00 in0.0 mm 0.00 in0.0 mm 0.00 in0.0 mm
04:10 PM 88.7°F31.5°C -5537.2°C - 6.0 mph ESE9.7 kmh ESE 7.4 mph11.9 kmh 25.07 in849.0 mb 0.00 in0.0 mm 0.00 in0.0 mm 0.00 in0.0 mm
04:04 PM 89.1°F31.7°C -5537.2°C - 6.0 mph ESE9.7 kmh ESE 8.3 mph13.4 kmh 25.07 in849.0 mb 0.00 in0.0 mm 0.00 in0.0 mm 0.00 in0.0 mm
03:59 PM 89.4°F31.9°C -5537.2°C - 6.0 mph ESE9.7 kmh ESE 8.3 mph13.4 kmh 25.07 in849.0 mb 0.00 in0.0 mm 0.00 in0.0 mm 0.00 in0.0 mm
03:54 PM 89.6°F32.0°C -5537.2°C - 5.0 mph E8.0 kmh E 9.6 mph15.4 kmh 25.07 in849.0 mb 0.00 in0.0 mm 0.00 in0.0 mm 0.00 in0.0 mm
03:49 PM 90.0°F32.2°C -5537.2°C - 2.0 mph NE3.2 kmh NE 8.3 mph13.4 kmh 25.07 in849.0 mb 0.00 in0.0 mm 0.00 in0.0 mm 0.00 in0.0 mm
03:44 PM 90.0°F32.2°C -5537.2°C - 2.0 mph NE3.2 kmh NE 4.9 mph7.9 kmh 25.07 in849.0 mb 0.00 in0.0 mm 0.00 in0.0 mm 0.00 in0.0 mm
03:39 PM 90.0°F32.2°C -5537.2°C - 2.0 mph NE3.2 kmh NE 4.9 mph7.9 kmh 25.07 in849.0 mb 0.00 in0.0 mm 0.00 in0.0 mm 0.00 in0.0 mm
03:34 PM 89.8°F32.1°C -5537.2°C - 3.0 mph ENE4.8 kmh ENE 4.5 mph7.2 kmh 25.07 in849.0 mb 0.00 in0.0 mm 0.00 in0.0 mm 0.00 in0.0 mm
03:29 PM 89.6°F32.0°C -5537.2°C - 4.0 mph ENE6.4 kmh ENE 8.7 mph14.0 kmh 25.07 in849.0 mb 0.00 in0.0 mm 0.00 in0.0 mm 0.00 in0.0 mm
03:24 PM 90.7°F32.6°C -5537.2°C - 6.0 mph ESE9.7 kmh ESE 9.2 mph14.8 kmh 25.07 in849.0 mb 0.00 in0.0 mm 0.00 in0.0 mm 0.00 in0.0 mm
03:19 PM 91.8°F33.2°C -5537.2°C - 6.0 mph E9.7 kmh E 13.0 mph20.9 kmh 25.07 in849.0 mb 0.00 in0.0 mm 0.00 in0.0 mm 0.00 in0.0 mm
03:14 PM 91.4°F33.0°C -5537.2°C - 5.0 mph E8.0 kmh E 7.8 mph12.6 kmh 25.07 in849.0 mb 0.00 in0.0 mm 0.00 in0.0 mm 0.00 in0.0 mm
03:09 PM 90.9°F32.7°C -5537.2°C - 6.0 mph ESE9.7 kmh ESE 8.7 mph14.0 kmh 25.07 in849.0 mb 0.00 in0.0 mm 0.00 in0.0 mm 0.00 in0.0 mm
03:04 PM 92.3°F33.5°C -5537.2°C - 6.0 mph ESE9.7 kmh ESE 11.0 mph17.7 kmh 25.07 in849.0 mb 0.00 in0.0 mm 0.00 in0.0 mm 0.00 in0.0 mm
02:59 PM 93.2°F34.0°C -5537.2°C - 5.0 mph E8.0 kmh E 11.0 mph17.7 kmh 25.07 in849.0 mb 0.00 in0.0 mm 0.00 in0.0 mm 0.00 in0.0 mm
02:54 PM 92.8°F33.8°C -5537.2°C - 6.0 mph ESE9.7 kmh ESE 9.2 mph14.8 kmh 25.07 in849.0 mb 0.00 in0.0 mm 0.00 in0.0 mm 0.00 in0.0 mm
02:49 PM 92.1°F33.4°C -5537.2°C - 6.0 mph ESE9.7 kmh ESE 11.2 mph18.0 kmh 25.07 in849.0 mb 0.00 in0.0 mm 0.00 in0.0 mm 0.00 in0.0 mm
02:44 PM 91.8°F33.2°C -5537.2°C - 6.0 mph ESE9.7 kmh ESE 10.1 mph16.3 kmh 25.07 in849.0 mb 0.00 in0.0 mm 0.00 in0.0 mm 0.00 in0.0 mm
02:39 PM 91.2°F32.9°C -5537.2°C - 7.0 mph SE11.3 kmh SE 14.8 mph23.8 kmh 25.07 in849.0 mb 0.00 in0.0 mm 0.00 in0.0 mm 0.00 in0.0 mm
02:34 PM 91.4°F33.0°C -5537.2°C - 7.0 mph ESE11.3 kmh ESE 11.2 mph18.0 kmh 25.07 in849.0 mb 0.00 in0.0 mm 0.00 in0.0 mm 0.00 in0.0 mm
02:29 PM 91.4°F33.0°C -5537.2°C - 7.0 mph SE11.3 kmh SE 13.0 mph20.9 kmh 25.07 in849.0 mb 0.00 in0.0 mm 0.00 in0.0 mm 0.00 in0.0 mm
02:24 PM 90.3°F32.4°C -5537.2°C - 7.0 mph SE11.3 kmh SE 14.8 mph23.8 kmh 25.10 in850.0 mb 0.00 in0.0 mm 0.00 in0.0 mm 0.00 in0.0 mm
02:19 PM 89.1°F31.7°C -5537.2°C - 8.0 mph SE12.9 kmh SE 13.9 mph22.4 kmh 25.10 in850.0 mb 0.00 in0.0 mm 0.00 in0.0 mm 0.00 in0.0 mm
02:14 PM 89.6°F32.0°C -5537.2°C - 8.0 mph SE12.9 kmh SE 13.4 mph21.6 kmh 25.10 in850.0 mb 0.00 in0.0 mm 0.00 in0.0 mm 0.00 in0.0 mm
02:09 PM 90.0°F32.2°C -5537.2°C - 8.0 mph SE12.9 kmh SE 13.4 mph21.6 kmh 25.10 in850.0 mb 0.00 in0.0 mm 0.00 in0.0 mm 0.00 in0.0 mm
02:04 PM 89.8°F32.1°C -5537.2°C - 7.0 mph SSE11.3 kmh SSE 13.4 mph21.6 kmh 25.10 in850.0 mb 0.00 in0.0 mm 0.00 in0.0 mm 0.00 in0.0 mm
01:59 PM 88.9°F31.6°C -5537.2°C - 8.0 mph S12.9 kmh S 11.6 mph18.7 kmh 25.10 in850.0 mb 0.00 in0.0 mm 0.00 in0.0 mm 0.00 in0.0 mm
01:54 PM 89.2°F31.8°C -5537.2°C - 8.0 mph S12.9 kmh S 13.0 mph20.9 kmh 25.10 in850.0 mb 0.00 in0.0 mm 0.00 in0.0 mm 0.00 in0.0 mm
01:49 PM 88.9°F31.6°C -5537.2°C - 9.0 mph S14.5 kmh S 13.0 mph20.9 kmh 25.10 in850.0 mb 0.00 in0.0 mm 0.00 in0.0 mm 0.00 in0.0 mm
01:44 PM 89.4°F31.9°C -5537.2°C - 8.0 mph S12.9 kmh S 15.4 mph24.8 kmh 25.10 in850.0 mb 0.00 in0.0 mm 0.00 in0.0 mm 0.00 in0.0 mm
01:39 PM 90.0°F32.2°C -5537.2°C - 5.0 mph SW8.0 kmh SW 8.7 mph14.0 kmh 25.10 in850.0 mb 0.00 in0.0 mm 0.00 in0.0 mm 0.00 in0.0 mm
01:34 PM 89.6°F32.0°C -5537.2°C - 6.0 mph SSW9.7 kmh SSW 9.2 mph14.8 kmh 25.10 in850.0 mb 0.00 in0.0 mm 0.00 in0.0 mm 0.00 in0.0 mm
01:29 PM 88.9°F31.6°C -5537.2°C - 6.0 mph SW9.7 kmh SW 11.0 mph17.7 kmh 25.10 in850.0 mb 0.00 in0.0 mm 0.00 in0.0 mm 0.00 in0.0 mm
01:24 PM 88.2°F31.2°C -5537.2°C - 5.0 mph SW8.0 kmh SW 9.6 mph15.4 kmh 25.13 in851.0 mb 0.00 in0.0 mm 0.00 in0.0 mm 0.00 in0.0 mm
01:19 PM 88.2°F31.2°C -5537.2°C - 6.0 mph SW9.7 kmh SW 11.0 mph17.7 kmh 25.13 in851.0 mb 0.00 in0.0 mm 0.00 in0.0 mm 0.00 in0.0 mm
01:14 PM 87.1°F30.6°C -5537.2°C - 5.0 mph SW8.0 kmh SW 7.4 mph11.9 kmh 25.13 in851.0 mb 0.00 in0.0 mm 0.00 in0.0 mm 0.00 in0.0 mm
01:09 PM 86.4°F30.2°C -5537.2°C - 4.0 mph WSW6.4 kmh WSW 7.8 mph12.6 kmh 25.13 in851.0 mb 0.00 in0.0 mm 0.00 in0.0 mm 0.00 in0.0 mm
01:04 PM 87.1°F30.6°C -5537.2°C - 3.0 mph W4.8 kmh W 7.8 mph12.6 kmh 25.13 in851.0 mb 0.00 in0.0 mm 0.00 in0.0 mm 0.00 in0.0 mm
12:59 PM 86.2°F30.1°C 25.5°F-3.6°C 11% 4.0 mph W6.4 kmh W 6.7 mph10.8 kmh 25.13 in851.0 mb 0.00 in0.0 mm 0.00 in0.0 mm 0.00 in0.0 mm
12:54 PM 86.5°F30.3°C 25.7°F-3.5°C 11% 4.0 mph SW6.4 kmh SW 7.4 mph11.9 kmh 25.13 in851.0 mb 0.00 in0.0 mm 0.00 in0.0 mm 0.00 in0.0 mm
12:49 PM 86.0°F30.0°C 25.3°F-3.7°C 11% 3.0 mph SW4.8 kmh SW 6.3 mph10.1 kmh 25.13 in851.0 mb 0.00 in0.0 mm 0.00 in0.0 mm 0.00 in0.0 mm
12:44 PM 86.0°F30.0°C 25.3°F-3.7°C 11% 3.0 mph WSW4.8 kmh WSW 6.9 mph11.1 kmh 25.13 in851.0 mb 0.00 in0.0 mm 0.00 in0.0 mm 0.00 in0.0 mm
12:39 PM 85.8°F29.9°C 25.2°F-3.8°C 11% 4.0 mph WSW6.4 kmh WSW 6.3 mph10.1 kmh 25.13 in851.0 mb 0.00 in0.0 mm 0.00 in0.0 mm 0.00 in0.0 mm
12:34 PM 85.6°F29.8°C 25.2°F-3.8°C 11% 5.0 mph SW8.0 kmh SW 8.3 mph13.4 kmh 25.13 in851.0 mb 0.00 in0.0 mm 0.00 in0.0 mm 0.00 in0.0 mm
12:29 PM 84.6°F29.2°C 28.2°F-2.1°C 13% 5.0 mph SW8.0 kmh SW 9.2 mph14.8 kmh 25.13 in851.0 mb 0.00 in0.0 mm 0.00 in0.0 mm 0.00 in0.0 mm
12:24 PM 84.9°F29.4°C 24.6°F-4.1°C 11% 4.0 mph WSW6.4 kmh WSW 8.7 mph14.0 kmh 25.13 in851.0 mb 0.00 in0.0 mm 0.00 in0.0 mm 0.00 in0.0 mm
12:19 PM 84.7°F29.3°C 24.4°F-4.2°C 11% 5.0 mph SW8.0 kmh SW 8.3 mph13.4 kmh 25.13 in851.0 mb 0.00 in0.0 mm 0.00 in0.0 mm 0.00 in0.0 mm
12:14 PM 85.3°F29.6°C 24.8°F-4.0°C 11% 5.0 mph SSW8.0 kmh SSW 9.2 mph14.8 kmh 25.13 in851.0 mb 0.00 in0.0 mm 0.00 in0.0 mm 0.00 in0.0 mm
12:09 PM 85.6°F29.8°C 29.1°F-1.6°C 13% 4.0 mph SW6.4 kmh SW 9.6 mph15.4 kmh 25.16 in852.0 mb 0.00 in0.0 mm 0.00 in0.0 mm 0.00 in0.0 mm
12:04 PM 85.5°F29.7°C 28.9°F-1.7°C 13% 3.0 mph WSW4.8 kmh WSW 5.8 mph9.3 kmh 25.16 in852.0 mb 0.00 in0.0 mm 0.00 in0.0 mm 0.00 in0.0 mm
11:59 AM 84.9°F29.4°C 28.6°F-1.9°C 13% 5.0 mph WSW8.0 kmh WSW 6.9 mph11.1 kmh 25.16 in852.0 mb 0.00 in0.0 mm 0.00 in0.0 mm 0.00 in0.0 mm
11:54 AM 84.2°F29.0°C 28.0°F-2.2°C 13% 4.0 mph NW6.4 kmh NW 8.3 mph13.4 kmh 25.16 in852.0 mb 0.00 in0.0 mm 0.00 in0.0 mm 0.00 in0.0 mm
11:49 AM 85.1°F29.5°C 28.8°F-1.8°C 13% 3.0 mph N4.8 kmh N 5.8 mph9.3 kmh 25.16 in852.0 mb 0.00 in0.0 mm 0.00 in0.0 mm 0.00 in0.0 mm
11:44 AM 84.7°F29.3°C 28.4°F-2.0°C 13% 3.0 mph N4.8 kmh N 6.3 mph10.1 kmh 25.16 in852.0 mb 0.00 in0.0 mm 0.00 in0.0 mm 0.00 in0.0 mm
11:39 AM 84.2°F29.0°C 28.0°F-2.2°C 13% 3.0 mph NNW4.8 kmh NNW 5.8 mph9.3 kmh 25.16 in852.0 mb 0.00 in0.0 mm 0.00 in0.0 mm 0.00 in0.0 mm
11:34 AM 84.4°F29.1°C 33.3°F0.7°C 16% 3.0 mph NW4.8 kmh NW 8.3 mph13.4 kmh 25.16 in852.0 mb 0.00 in0.0 mm 0.00 in0.0 mm 0.00 in0.0 mm
11:29 AM 83.3°F28.5°C 32.4°F0.2°C 16% 4.0 mph W6.4 kmh W 7.4 mph11.9 kmh 25.16 in852.0 mb 0.00 in0.0 mm 0.00 in0.0 mm 0.00 in0.0 mm
11:24 AM 83.7°F28.7°C 35.6°F2.0°C 18% 4.0 mph WSW6.4 kmh WSW 7.4 mph11.9 kmh 25.16 in852.0 mb 0.00 in0.0 mm 0.00 in0.0 mm 0.00 in0.0 mm
11:19 AM 82.8°F28.2°C 36.3°F2.4°C 19% 4.0 mph SW6.4 kmh SW 7.4 mph11.9 kmh 25.16 in852.0 mb 0.00 in0.0 mm 0.00 in0.0 mm 0.00 in0.0 mm
11:14 AM 83.3°F28.5°C 36.7°F2.6°C 19% 3.0 mph SW4.8 kmh SW 6.7 mph10.8 kmh 25.16 in852.0 mb 0.00 in0.0 mm 0.00 in0.0 mm 0.00 in0.0 mm
11:09 AM 83.3°F28.5°C 36.7°F2.6°C 19% 3.0 mph WSW4.8 kmh WSW 6.9 mph11.1 kmh 25.16 in852.0 mb 0.00 in0.0 mm 0.00 in0.0 mm 0.00 in0.0 mm
11:04 AM 83.3°F28.5°C 36.7°F2.6°C 19% 3.0 mph WSW4.8 kmh WSW 6.3 mph10.1 kmh 25.16 in852.0 mb 0.00 in0.0 mm 0.00 in0.0 mm 0.00 in0.0 mm
10:59 AM 83.5°F28.6°C 35.4°F1.9°C 18% 3.0 mph SW4.8 kmh SW 7.4 mph11.9 kmh 25.16 in852.0 mb 0.00 in0.0 mm 0.00 in0.0 mm 0.00 in0.0 mm
10:54 AM 83.1°F28.4°C 36.5°F2.5°C 19% 3.0 mph S4.8 kmh S 8.7 mph14.0 kmh 25.16 in852.0 mb 0.00 in0.0 mm 0.00 in0.0 mm 0.00 in0.0 mm
10:49 AM 82.2°F27.9°C 35.8°F2.1°C 19% 3.0 mph S4.8 kmh S 6.3 mph10.1 kmh 25.16 in852.0 mb 0.00 in0.0 mm 0.00 in0.0 mm 0.00 in0.0 mm
10:43 AM 81.9°F27.7°C 36.9°F2.7°C 20% 2.0 mph S3.2 kmh S 6.3 mph10.1 kmh 25.16 in852.0 mb 0.00 in0.0 mm 0.00 in0.0 mm 0.00 in0.0 mm
10:38 AM 82.6°F28.1°C 37.4°F3.0°C 20% 3.0 mph SSE4.8 kmh SSE 5.4 mph8.7 kmh 25.16 in852.0 mb 0.00 in0.0 mm 0.00 in0.0 mm 0.00 in0.0 mm
10:33 AM 81.3°F27.4°C 37.6°F3.1°C 21% 4.0 mph W6.4 kmh W 6.3 mph10.1 kmh 25.16 in852.0 mb 0.00 in0.0 mm 0.00 in0.0 mm 0.00 in0.0 mm
10:28 AM 80.8°F27.1°C 37.2°F2.9°C 21% 3.0 mph W4.8 kmh W 6.3 mph10.1 kmh 25.16 in852.0 mb 0.00 in0.0 mm 0.00 in0.0 mm 0.00 in0.0 mm
10:23 AM 81.3°F27.4°C 37.6°F3.1°C 21% 4.0 mph WSW6.4 kmh WSW 8.3 mph13.4 kmh 25.16 in852.0 mb 0.00 in0.0 mm 0.00 in0.0 mm 0.00 in0.0 mm
10:18 AM 79.7°F26.5°C 36.3°F2.4°C 21% 4.0 mph SW6.4 kmh SW 7.4 mph11.9 kmh 25.16 in852.0 mb 0.00 in0.0 mm 0.00 in0.0 mm 0.00 in0.0 mm
10:13 AM 81.9°F27.7°C 36.9°F2.7°C 20% 3.0 mph SW4.8 kmh SW 7.4 mph11.9 kmh 25.16 in852.0 mb 0.00 in0.0 mm 0.00 in0.0 mm 0.00 in0.0 mm
10:08 AM 82.4°F28.0°C 37.2°F2.9°C 20% 4.0 mph W6.4 kmh W 6.7 mph10.8 kmh 25.16 in852.0 mb 0.00 in0.0 mm 0.00 in0.0 mm 0.00 in0.0 mm
10:03 AM 81.3°F27.4°C 37.6°F3.1°C 21% 4.0 mph WSW6.4 kmh WSW 8.7 mph14.0 kmh 25.16 in852.0 mb 0.00 in0.0 mm 0.00 in0.0 mm 0.00 in0.0 mm
09:58 AM 81.9°F27.7°C 40.5°F4.7°C 23% 4.0 mph SW6.4 kmh SW 7.8 mph12.6 kmh 25.16 in852.0 mb 0.00 in0.0 mm 0.00 in0.0 mm 0.00 in0.0 mm
09:53 AM 80.1°F26.7°C 39.9°F4.4°C 24% 5.0 mph WSW8.0 kmh WSW 8.3 mph13.4 kmh 25.16 in852.0 mb 0.00 in0.0 mm 0.00 in0.0 mm 0.00 in0.0 mm
09:48 AM 79.9°F26.6°C 40.8°F4.9°C 25% 4.0 mph WSW6.4 kmh WSW 9.2 mph14.8 kmh 25.16 in852.0 mb 0.00 in0.0 mm 0.00 in0.0 mm 0.00 in0.0 mm
09:43 AM 79.0°F26.1°C 44.1°F6.7°C 29% 5.0 mph W8.0 kmh W 6.3 mph10.1 kmh 25.16 in852.0 mb 0.00 in0.0 mm 0.00 in0.0 mm 0.00 in0.0 mm
09:38 AM 77.7°F25.4°C 43.0°F6.1°C 29% 5.0 mph W8.0 kmh W 8.7 mph14.0 kmh 25.16 in852.0 mb 0.00 in0.0 mm 0.00 in0.0 mm 0.00 in0.0 mm
09:33 AM 77.2°F25.1°C 41.5°F5.3°C 28% 5.0 mph W8.0 kmh W 8.7 mph14.0 kmh 25.16 in852.0 mb 0.00 in0.0 mm 0.00 in0.0 mm 0.00 in0.0 mm
09:28 AM 78.4°F25.8°C 43.5°F6.4°C 29% 4.0 mph WNW6.4 kmh WNW 10.1 mph16.3 kmh 25.16 in852.0 mb 0.00 in0.0 mm 0.00 in0.0 mm 0.00 in0.0 mm
09:23 AM 77.5°F25.3°C 43.7°F6.5°C 30% 4.0 mph WSW6.4 kmh WSW 6.7 mph10.8 kmh 25.16 in852.0 mb 0.00 in0.0 mm 0.00 in0.0 mm 0.00 in0.0 mm
09:18 AM 78.1°F25.6°C 44.1°F6.7°C 30% 3.0 mph SW4.8 kmh SW 6.9 mph11.1 kmh 25.16 in852.0 mb 0.00 in0.0 mm 0.00 in0.0 mm 0.00 in0.0 mm
09:13 AM 78.1°F25.6°C 44.1°F6.7°C 30% 3.0 mph W4.8 kmh W 6.3 mph10.1 kmh 25.16 in852.0 mb 0.00 in0.0 mm 0.00 in0.0 mm 0.00 in0.0 mm
09:08 AM 77.0°F25.0°C 44.1°F6.7°C 31% 4.0 mph WSW6.4 kmh WSW 7.8 mph12.6 kmh 25.16 in852.0 mb 0.00 in0.0 mm 0.00 in0.0 mm 0.00 in0.0 mm
09:03 AM 77.2°F25.1°C 44.2°F6.8°C 31% 4.0 mph SW6.4 kmh SW 8.3 mph13.4 kmh 25.16 in852.0 mb 0.00 in0.0 mm 0.00 in0.0 mm 0.00 in0.0 mm
08:58 AM 76.8°F24.9°C 43.9°F6.6°C 31% 6.0 mph SW9.7 kmh SW 11.0 mph17.7 kmh 25.16 in852.0 mb 0.00 in0.0 mm 0.00 in0.0 mm 0.00 in0.0 mm
08:53 AM 74.7°F23.7°C 42.8°F6.0°C 32% 8.0 mph SW12.9 kmh SW 11.2 mph18.0 kmh 25.16 in852.0 mb 0.00 in0.0 mm 0.00 in0.0 mm 0.00 in0.0 mm
08:48 AM 75.2°F24.0°C 43.3°F6.3°C 32% 8.0 mph SW12.9 kmh SW 11.0 mph17.7 kmh 25.16 in852.0 mb 0.00 in0.0 mm 0.00 in0.0 mm 0.00 in0.0 mm
08:43 AM 75.9°F24.4°C 43.2°F6.2°C 31% 8.0 mph SW12.9 kmh SW 11.0 mph17.7 kmh 25.16 in852.0 mb 0.00 in0.0 mm 0.00 in0.0 mm 0.00 in0.0 mm
08:38 AM 77.2°F25.1°C 39.6°F4.2°C 26% 5.0 mph W8.0 kmh W 9.2 mph14.8 kmh 25.16 in852.0 mb 0.00 in0.0 mm 0.00 in0.0 mm 0.00 in0.0 mm
08:33 AM 77.5°F25.3°C 38.8°F3.8°C 25% 3.0 mph NW4.8 kmh NW 5.8 mph9.3 kmh 25.16 in852.0 mb 0.00 in0.0 mm 0.00 in0.0 mm 0.00 in0.0 mm
08:28 AM 77.5°F25.3°C 39.9°F4.4°C 26% 4.0 mph NW6.4 kmh NW 5.8 mph9.3 kmh 25.16 in852.0 mb 0.00 in0.0 mm 0.00 in0.0 mm 0.00 in0.0 mm
08:23 AM 77.2°F25.1°C 39.6°F4.2°C 26% 4.0 mph NNW6.4 kmh NNW 6.9 mph11.1 kmh 25.13 in851.0 mb 0.00 in0.0 mm 0.00 in0.0 mm 0.00 in0.0 mm
08:18 AM 76.8°F24.9°C 40.3°F4.6°C 27% 4.0 mph N6.4 kmh N 6.9 mph11.1 kmh 25.13 in851.0 mb 0.00 in0.0 mm 0.00 in0.0 mm 0.00 in0.0 mm
08:13 AM 76.5°F24.7°C 41.0°F5.0°C 28% 4.0 mph N6.4 kmh N 6.7 mph10.8 kmh 25.13 in851.0 mb 0.00 in0.0 mm 0.00 in0.0 mm 0.00 in0.0 mm
08:08 AM 76.3°F24.6°C 41.7°F5.4°C 29% 4.0 mph N6.4 kmh N 7.8 mph12.6 kmh 25.13 in851.0 mb 0.00 in0.0 mm 0.00 in0.0 mm 0.00 in0.0 mm
08:03 AM 75.9°F24.4°C 43.2°F6.2°C 31% 4.0 mph N6.4 kmh N 6.3 mph10.1 kmh 25.13 in851.0 mb 0.00 in0.0 mm 0.00 in0.0 mm 0.00 in0.0 mm
07:58 AM 75.6°F24.2°C 42.8°F6.0°C 31% 5.0 mph N8.0 kmh N 7.4 mph11.9 kmh 25.13 in851.0 mb 0.00 in0.0 mm 0.00 in0.0 mm 0.00 in0.0 mm
07:53 AM 75.2°F24.0°C 42.4°F5.8°C 31% 5.0 mph N8.0 kmh N 9.6 mph15.4 kmh 25.16 in852.0 mb 0.00 in0.0 mm 0.00 in0.0 mm 0.00 in0.0 mm
07:48 AM 75.0°F23.9°C 42.3°F5.7°C 31% 4.0 mph N6.4 kmh N 8.7 mph14.0 kmh 25.16 in852.0 mb 0.00 in0.0 mm 0.00 in0.0 mm 0.00 in0.0 mm
07:43 AM 74.7°F23.7°C 42.8°F6.0°C 32% 4.0 mph N6.4 kmh N 8.3 mph13.4 kmh 25.16 in852.0 mb 0.00 in0.0 mm 0.00 in0.0 mm 0.00 in0.0 mm
07:38 AM 74.1°F23.4°C 43.2°F6.2°C 33% 3.0 mph N4.8 kmh N 5.4 mph8.7 kmh 25.16 in852.0 mb 0.00 in0.0 mm 0.00 in0.0 mm 0.00 in0.0 mm
07:33 AM 73.6°F23.1°C 43.5°F6.4°C 34% 3.0 mph NNW4.8 kmh NNW 5.4 mph8.7 kmh 25.16 in852.0 mb 0.00 in0.0 mm 0.00 in0.0 mm 0.00 in0.0 mm
07:28 AM 73.2°F22.9°C 43.9°F6.6°C 35% 3.0 mph NNW4.8 kmh NNW 6.7 mph10.8 kmh 25.16 in852.0 mb 0.00 in0.0 mm 0.00 in0.0 mm 0.00 in0.0 mm
12:27 AM 77.7°F25.4°C 34.7°F1.5°C 21% 1.0 mph WSW1.6 kmh WSW 4.5 mph7.2 kmh 25.13 in851.0 mb 0.00 in0.0 mm 0.00 in0.0 mm 0.00 in0.0 mm
12:22 AM 78.3°F25.7°C 35.1°F1.7°C 21% 1.0 mph W1.6 kmh W 2.7 mph4.3 kmh 25.13 in851.0 mb 0.00 in0.0 mm 0.00 in0.0 mm 0.00 in0.0 mm
12:17 AM 78.3°F25.7°C 35.1°F1.7°C 21% 3.0 mph W4.8 kmh W 7.4 mph11.9 kmh 25.13 in851.0 mb 0.00 in0.0 mm 0.00 in0.0 mm 0.00 in0.0 mm
12:12 AM 78.4°F25.8°C 35.2°F1.8°C 21% 3.0 mph NNE4.8 kmh NNE 9.2 mph14.8 kmh 25.13 in851.0 mb 0.00 in0.0 mm 0.00 in0.0 mm 0.00 in0.0 mm
12:07 AM 79.2°F26.2°C 34.7°F1.5°C 20% 2.0 mph NE3.2 kmh NE 5.8 mph9.3 kmh 25.13 in851.0 mb 0.00 in0.0 mm 0.00 in0.0 mm 0.00 in0.0 mm
12:02 AM 79.2°F26.2°C 34.7°F1.5°C 20% 3.0 mph NE4.8 kmh NE 8.3 mph13.4 kmh 25.13 in851.0 mb 0.00 in0.0 mm 0.00 in0.0 mm 0.00 in0.0 mm